Time;durP1;ratioP1;P1;durP2;ratioP2;P2;SDS_P1;SDS_P2;PMS_P1;PMS_P2;Temp;Humidity;BMP_temperature;BMP_pressure;BME280_temperature;BME280_humidity;BME280_pressure;Samples;Min_cycle;Max_cycle;Signal;HPM_P1;HPM_P2
2023/03/28 00:00:13;;;;;;;6.67;2.90;;;;;;;;;;5004344;28;20502;-45
2023/03/28 00:02:39;;;;;;;9.80;3.15;;;;;;;;;;4999138;28;20451;-44
2023/03/28 00:05:06;;;;;;;8.73;3.57;;;;;;;;;;4999181;28;20671;-44
2023/03/28 00:07:32;;;;;;;7.22;3.13;;;;;;;;;;5009807;28;20749;-44
2023/03/28 00:09:58;;;;;;;12.27;3.50;;;;;;;;;;5005117;28;20176;-44
2023/03/28 00:12:24;;;;;;;8.67;3.33;;;;;;;;;;5010436;28;20481;-44
2023/03/28 00:14:50;;;;;;;11.77;3.30;;;;;;;;;;5000796;28;20435;-44
2023/03/28 00:17:16;;;;;;;7.27;3.30;;;;;;;;;;4998233;28;20173;-45
2023/03/28 00:19:42;;;;;;;7.60;3.57;;;;;;;;;;5004328;28;20509;-44
2023/03/28 00:22:10;;;;;;;6.72;2.85;;;;;;;;;;4999205;28;20832;-44
2023/03/28 00:24:37;;;;;;;8.82;2.92;;;;;;;;;;5003729;28;20259;-45
2023/03/28 00:27:04;;;;;;;11.23;3.75;;;;;;;;;;5000060;28;20236;-45
2023/03/28 00:29:30;;;;;;;6.93;3.88;;;;;;;;;;5001587;28;20180;-45
2023/03/28 00:31:56;;;;;;;9.43;3.60;;;;;;;;;;5004977;28;20196;-44
2023/03/28 00:34:22;;;;;;;14.65;4.10;;;;;;;;;;5005065;28;20173;-45
2023/03/28 00:36:49;;;;;;;5.15;4.03;;;;;;;;;;5003899;28;20232;-46
2023/03/28 00:39:15;;;;;;;6.70;4.10;;;;;;;;;;5010151;28;20251;-44
2023/03/28 00:41:43;;;;;;;3.80;3.50;;;;;;;;;;4999021;28;20188;-44
2023/03/28 00:44:27;;;;;;;6.32;4.25;;;;;;;;;;5000824;28;20197;-44
2023/03/28 00:46:53;;;;;;;4.85;3.50;;;;;;;;;;4986370;28;20541;-45
2023/03/28 00:49:23;;;;;;;11.40;4.40;;;;;;;;;;5001111;28;20179;-44
2023/03/28 00:51:55;;;;;;;9.27;4.15;;;;;;;;;;4994625;28;20653;-44
2023/03/28 00:54:22;;;;;;;12.20;4.53;;;;;;;;;;5001190;28;20234;-45
2023/03/28 00:56:49;;;;;;;5.85;3.97;;;;;;;;;;5002623;28;20184;-44
2023/03/28 00:59:18;;;;;;;5.35;3.70;;;;;;;;;;5006166;28;20173;-44
2023/03/28 01:01:44;;;;;;;6.40;4.35;;;;;;;;;;4995302;28;20201;-45
2023/03/28 01:04:10;;;;;;;6.60;4.47;;;;;;;;;;5006206;28;20212;-44
2023/03/28 01:06:46;;;;;;;6.93;3.97;;;;;;;;;;5000993;28;20192;-44
2023/03/28 01:09:13;;;;;;;11.10;4.03;;;;;;;;;;5000893;28;20415;-44
2023/03/28 01:11:40;;;;;;;16.50;4.88;;;;;;;;;;5002420;28;20257;-44
2023/03/28 01:14:07;;;;;;;6.32;3.75;;;;;;;;;;5000447;28;20180;-44
2023/03/28 01:16:40;;;;;;;7.35;4.45;;;;;;;;;;4999691;28;20236;-45
2023/03/28 01:19:06;;;;;;;6.68;4.15;;;;;;;;;;5004016;28;20545;-44
2023/03/28 01:21:52;;;;;;;11.40;4.68;;;;;;;;;;5005672;28;20203;-45
2023/03/28 01:24:28;;;;;;;23.65;4.85;;;;;;;;;;5007705;28;20264;-44
2023/03/28 01:26:55;;;;;;;16.30;4.72;;;;;;;;;;4991982;28;20640;-44
2023/03/28 01:29:42;;;;;;;11.07;4.72;;;;;;;;;;5001228;28;20634;-44
2023/03/28 01:32:32;;;;;;;9.57;5.53;;;;;;;;;;5002055;28;20192;-45
2023/03/28 01:35:19;;;;;;;5.50;4.38;;;;;;;;;;4997130;28;20183;-45
2023/03/28 01:37:57;;;;;;;9.00;4.40;;;;;;;;;;4999733;28;20176;-46
2023/03/28 01:40:26;;;;;;;13.25;4.57;;;;;;;;;;4997737;28;20180;-44
2023/03/28 01:42:52;;;;;;;8.88;4.40;;;;;;;;;;5003063;28;20207;-46
2023/03/28 01:45:18;;;;;;;6.63;4.63;;;;;;;;;;4999770;28;20192;-44
2023/03/28 01:48:04;;;;;;;16.17;5.07;;;;;;;;;;5005132;28;20180;-44
2023/03/28 01:50:35;;;;;;;16.67;4.95;;;;;;;;;;4999784;28;20515;-45
2023/03/28 01:53:11;;;;;;;10.55;4.47;;;;;;;;;;5005220;28;20180;-44
2023/03/28 01:55:52;;;;;;;10.88;4.95;;;;;;;;;;5003270;28;20713;-43
2023/03/28 01:58:29;;;;;;;11.68;5.28;;;;;;;;;;5002353;28;20254;-44
2023/03/28 02:00:58;;;;;;;8.07;5.13;;;;;;;;;;4991263;28;20215;-44
2023/03/28 02:03:26;;;;;;;8.57;4.30;;;;;;;;;;5003135;28;20679;-44
2023/03/28 02:05:54;;;;;;;17.10;4.68;;;;;;;;;;5003862;28;20186;-44
2023/03/28 02:08:21;;;;;;;7.28;4.65;;;;;;;;;;5003407;28;20187;-44
2023/03/28 02:10:49;;;;;;;9.45;4.53;;;;;;;;;;4995923;28;20549;-44
2023/03/28 02:13:20;;;;;;;10.15;4.93;;;;;;;;;;5006022;28;20226;-44
2023/03/28 02:15:47;;;;;;;16.45;5.38;;;;;;;;;;4992950;28;20178;-44
2023/03/28 02:18:16;;;;;;;14.40;4.60;;;;;;;;;;5006558;28;20268;-44
2023/03/28 02:20:44;;;;;;;9.25;5.10;;;;;;;;;;5003981;28;20296;-44
2023/03/28 02:23:10;;;;;;;7.70;4.30;;;;;;;;;;5004846;28;20208;-44
2023/03/28 02:25:37;;;;;;;17.20;4.50;;;;;;;;;;4999819;28;20177;-44
2023/03/28 02:28:06;;;;;;;16.50;5.78;;;;;;;;;;5010048;28;20650;-44
2023/03/28 02:30:32;;;;;;;8.43;5.03;;;;;;;;;;5001840;28;20235;-45
2023/03/28 02:33:03;;;;;;;9.25;5.10;;;;;;;;;;5009012;28;20730;-44
2023/03/28 02:35:34;;;;;;;14.40;5.70;;;;;;;;;;5004960;28;20190;-45
2023/03/28 02:38:06;;;;;;;11.60;4.85;;;;;;;;;;5005933;28;20184;-46
2023/03/28 02:40:50;;;;;;;9.30;4.53;;;;;;;;;;5004915;28;20587;-44
2023/03/28 02:43:32;;;;;;;11.77;4.40;;;;;;;;;;5007588;28;20217;-44
2023/03/28 02:46:12;;;;;;;13.15;5.30;;;;;;;;;;4995627;28;20187;-43
2023/03/28 02:48:44;;;;;;;12.00;5.00;;;;;;;;;;5007335;28;20244;-44
2023/03/28 02:51:13;;;;;;;10.68;4.68;;;;;;;;;;5006298;28;20278;-46
2023/03/28 02:53:50;;;;;;;12.25;4.85;;;;;;;;;;4999697;28;20188;-43
2023/03/28 02:56:20;;;;;;;12.13;4.93;;;;;;;;;;4992469;28;20625;-44
2023/03/28 02:58:51;;;;;;;13.82;5.35;;;;;;;;;;5003180;28;20177;-45
2023/03/28 03:01:17;;;;;;;12.18;4.97;;;;;;;;;;5004302;28;20200;-44
2023/03/28 03:03:44;;;;;;;19.10;5.43;;;;;;;;;;5003161;28;20211;-44
2023/03/28 03:06:11;;;;;;;9.95;5.93;;;;;;;;;;5005765;28;20625;-43
2023/03/28 03:08:37;;;;;;;14.15;5.10;;;;;;;;;;5002955;28;20251;-44
2023/03/28 03:11:03;;;;;;;10.20;5.25;;;;;;;;;;5001810;28;20220;-44
2023/03/28 03:13:29;;;;;;;10.83;5.83;;;;;;;;;;5008672;28;20211;-44
2023/03/28 03:15:55;;;;;;;12.10;5.40;;;;;;;;;;5004318;28;20430;-44
2023/03/28 03:18:21;;;;;;;8.23;5.23;;;;;;;;;;5006644;28;20514;-44
2023/03/28 03:20:49;;;;;;;8.93;5.78;;;;;;;;;;5002559;28;20499;-44
2023/03/28 03:23:15;;;;;;;17.27;6.22;;;;;;;;;;5005270;28;20204;-44
2023/03/28 03:25:42;;;;;;;11.50;5.75;;;;;;;;;;5000079;28;20208;-44
2023/03/28 03:28:08;;;;;;;11.35;5.53;;;;;;;;;;5000257;28;20169;-43
2023/03/28 03:30:34;;;;;;;9.88;5.50;;;;;;;;;;5004176;28;20201;-44
2023/03/28 03:33:00;;;;;;;19.47;6.10;;;;;;;;;;5005837;28;20188;-44
2023/03/28 03:35:28;;;;;;;14.10;5.50;;;;;;;;;;5003031;28;20412;-43
2023/03/28 03:37:54;;;;;;;12.10;5.90;;;;;;;;;;5009103;28;20514;-44
2023/03/28 03:40:20;;;;;;;11.23;5.13;;;;;;;;;;5005717;28;20238;-44
2023/03/28 03:42:46;;;;;;;10.63;6.20;;;;;;;;;;4994461;28;20213;-44
2023/03/28 03:45:12;;;;;;;11.40;5.60;;;;;;;;;;5007818;28;20919;-44
2023/03/28 03:47:38;;;;;;;14.63;6.00;;;;;;;;;;4994823;28;20424;-44
2023/03/28 03:50:04;;;;;;;9.63;5.80;;;;;;;;;;5001670;28;20180;-45
2023/03/28 03:52:30;;;;;;;15.50;6.20;;;;;;;;;;5002842;28;20467;-44
2023/03/28 03:54:56;;;;;;;12.83;5.60;;;;;;;;;;5002198;28;20270;-45
2023/03/28 03:57:22;;;;;;;13.50;7.63;;;;;;;;;;5002493;28;20473;-44
2023/03/28 03:59:48;;;;;;;7.30;5.93;;;;;;;;;;5005650;28;20425;-45
2023/03/28 04:02:14;;;;;;;10.40;6.15;;;;;;;;;;5007421;28;20460;-44
2023/03/28 04:04:40;;;;;;;18.47;7.10;;;;;;;;;;5002459;28;20177;-43
2023/03/28 04:07:06;;;;;;;14.90;7.53;;;;;;;;;;5003207;28;20458;-43
2023/03/28 04:09:32;;;;;;;12.98;6.45;;;;;;;;;;5007573;28;20426;-44
2023/03/28 04:11:58;;;;;;;11.07;6.60;;;;;;;;;;5002637;28;20204;-44
2023/03/28 04:14:24;;;;;;;15.03;6.60;;;;;;;;;;5005569;28;20499;-46
2023/03/28 04:16:52;;;;;;;15.00;6.78;;;;;;;;;;5000657;28;20455;-44
2023/03/28 04:19:18;;;;;;;9.25;6.47;;;;;;;;;;5002645;28;20168;-44
2023/03/28 04:21:46;;;;;;;11.95;6.63;;;;;;;;;;5004467;28;20271;-44
2023/03/28 04:24:15;;;;;;;10.32;6.07;;;;;;;;;;5004735;28;20203;-44
2023/03/28 04:26:41;;;;;;;14.98;7.30;;;;;;;;;;5001955;28;20197;-45
2023/03/28 04:29:08;;;;;;;11.30;7.05;;;;;;;;;;5007504;28;20176;-44
2023/03/28 04:31:37;;;;;;;13.35;6.88;;;;;;;;;;4996998;28;20197;-44
2023/03/28 04:34:04;;;;;;;12.35;6.97;;;;;;;;;;5009340;28;20188;-44
2023/03/28 04:36:30;;;;;;;15.30;7.30;;;;;;;;;;5002552;28;20244;-44
2023/03/28 04:39:01;;;;;;;11.80;6.60;;;;;;;;;;5008887;28;20178;-44
2023/03/28 04:41:32;;;;;;;11.38;7.13;;;;;;;;;;5001893;28;20657;-44
2023/03/28 04:43:58;;;;;;;16.90;7.10;;;;;;;;;;5002345;28;20239;-44
2023/03/28 04:46:24;;;;;;;14.18;7.15;;;;;;;;;;5001877;28;20179;-45
2023/03/28 04:48:50;;;;;;;15.53;8.20;;;;;;;;;;4999777;28;20180;-44
2023/03/28 04:51:16;;;;;;;11.50;7.30;;;;;;;;;;5004254;28;20435;-45
2023/03/28 04:53:42;;;;;;;13.40;8.00;;;;;;;;;;5000123;28;20411;-43
2023/03/28 04:56:08;;;;;;;11.20;6.17;;;;;;;;;;5000373;28;20416;-44
2023/03/28 04:58:35;;;;;;;13.18;7.15;;;;;;;;;;5005525;28;20427;-44
2023/03/28 05:01:02;;;;;;;14.55;7.60;;;;;;;;;;5000363;28;20202;-43
2023/03/28 05:03:28;;;;;;;17.80;8.15;;;;;;;;;;5004660;28;20210;-44
2023/03/28 05:05:54;;;;;;;12.73;7.40;;;;;;;;;;5005144;28;20689;-44
2023/03/28 05:08:22;;;;;;;12.43;7.43;;;;;;;;;;5001717;28;20184;-43
2023/03/28 05:10:49;;;;;;;12.07;7.28;;;;;;;;;;5003855;28;20439;-45
2023/03/28 05:13:15;;;;;;;24.15;7.65;;;;;;;;;;4997715;28;20649;-44
2023/03/28 05:15:42;;;;;;;11.82;6.80;;;;;;;;;;4998714;28;20557;-44
2023/03/28 05:18:08;;;;;;;19.25;7.82;;;;;;;;;;5001137;28;20256;-44
2023/03/28 05:20:35;;;;;;;15.80;7.15;;;;;;;;;;5000271;28;20200;-44
2023/03/28 05:23:02;;;;;;;16.95;7.75;;;;;;;;;;5000511;28;20283;-44
2023/03/28 05:25:28;;;;;;;10.68;7.95;;;;;;;;;;5005556;28;20173;-44
2023/03/28 05:27:54;;;;;;;9.73;7.85;;;;;;;;;;4998423;28;20211;-44
2023/03/28 05:30:20;;;;;;;15.48;7.90;;;;;;;;;;4989756;28;20211;-44
2023/03/28 05:32:46;;;;;;;18.63;8.60;;;;;;;;;;4995830;28;20215;-44
2023/03/28 05:35:13;;;;;;;13.45;7.93;;;;;;;;;;5002806;28;20412;-43
2023/03/28 05:37:39;;;;;;;19.27;8.00;;;;;;;;;;5003241;28;20181;-43
2023/03/28 05:40:06;;;;;;;12.43;9.00;;;;;;;;;;5010125;28;20183;-44
2023/03/28 05:42:32;;;;;;;19.67;8.63;;;;;;;;;;5008315;28;20192;-44
2023/03/28 05:44:58;;;;;;;16.90;9.23;;;;;;;;;;5007520;28;20587;-45
2023/03/28 05:47:24;;;;;;;16.23;7.90;;;;;;;;;;5004879;28;20198;-44
2023/03/28 05:49:51;;;;;;;17.02;8.93;;;;;;;;;;5005320;28;20869;-44
2023/03/28 05:52:17;;;;;;;14.48;8.10;;;;;;;;;;5010039;28;20192;-44
2023/03/28 05:54:43;;;;;;;17.40;8.50;;;;;;;;;;5008198;28;20222;-44
2023/03/28 05:57:09;;;;;;;10.97;7.87;;;;;;;;;;5006809;28;20176;-44
2023/03/28 05:59:39;;;;;;;12.15;8.73;;;;;;;;;;5014095;28;20411;-45
2023/03/28 06:02:05;;;;;;;8.85;7.50;;;;;;;;;;5000032;28;20196;-44
2023/03/28 06:04:31;;;;;;;12.48;8.00;;;;;;;;;;5007741;28;20226;-45
2023/03/28 06:06:57;;;;;;;15.33;8.27;;;;;;;;;;5006613;28;20184;-44
2023/03/28 06:09:23;;;;;;;13.77;8.30;;;;;;;;;;5012652;28;20493;-43
2023/03/28 06:11:49;;;;;;;19.80;8.40;;;;;;;;;;5009442;28;20427;-46
2023/03/28 06:14:15;;;;;;;20.55;8.38;;;;;;;;;;5002870;28;20415;-44
2023/03/28 06:16:41;;;;;;;14.03;7.43;;;;;;;;;;5004067;28;20562;-44
2023/03/28 06:19:07;;;;;;;15.33;8.97;;;;;;;;;;5012432;28;20417;-44
2023/03/28 06:21:33;;;;;;;15.83;8.57;;;;;;;;;;5008793;28;20440;-44
2023/03/28 06:23:59;;;;;;;14.33;7.77;;;;;;;;;;5010373;28;20457;-44
2023/03/28 06:26:25;;;;;;;16.23;8.40;;;;;;;;;;5010058;28;20473;-44
2023/03/28 06:28:52;;;;;;;11.65;8.43;;;;;;;;;;5001963;28;20219;-44
2023/03/28 06:31:18;;;;;;;23.55;9.00;;;;;;;;;;5005515;28;20724;-44
2023/03/28 06:33:44;;;;;;;20.23;7.85;;;;;;;;;;5007342;28;20180;-44
2023/03/28 06:36:11;;;;;;;18.15;7.40;;;;;;;;;;5006041;28;20204;-45
2023/03/28 06:38:37;;;;;;;10.13;7.90;;;;;;;;;;5009391;28;20733;-45
2023/03/28 06:41:04;;;;;;;15.55;8.35;;;;;;;;;;5010475;28;20690;-44
2023/03/28 06:43:30;;;;;;;17.90;7.95;;;;;;;;;;5009482;28;20204;-46
2023/03/28 06:45:56;;;;;;;11.75;7.55;;;;;;;;;;5009958;28;20187;-44
2023/03/28 06:48:28;;;;;;;16.17;7.55;;;;;;;;;;5002671;28;20183;-44
2023/03/28 06:50:54;;;;;;;17.83;7.13;;;;;;;;;;5001449;28;20503;-44
2023/03/28 06:53:20;;;;;;;14.10;6.18;;;;;;;;;;5000390;28;20211;-44
2023/03/28 06:55:48;;;;;;;8.65;5.25;;;;;;;;;;4997961;28;20185;-47
2023/03/28 06:58:15;;;;;;;8.47;5.40;;;;;;;;;;5005924;28;20242;-45
2023/03/28 07:00:41;;;;;;;11.40;5.30;;;;;;;;;;5006185;28;20440;-45
2023/03/28 07:03:07;;;;;;;11.97;5.83;;;;;;;;;;5005322;28;20452;-47
2023/03/28 07:05:37;;;;;;;13.90;4.90;;;;;;;;;;5010279;28;20416;-47
2023/03/28 07:08:03;;;;;;;12.83;5.37;;;;;;;;;;5009638;28;20420;-46
2023/03/28 07:10:29;;;;;;;8.83;4.73;;;;;;;;;;5009860;28;20505;-46
2023/03/28 07:12:55;;;;;;;7.70;6.03;;;;;;;;;;5007156;28;20415;-47
2023/03/28 07:15:21;;;;;;;7.97;5.03;;;;;;;;;;5004892;28;20985;-46
2023/03/28 07:17:47;;;;;;;8.13;5.07;;;;;;;;;;5009140;28;20866;-47
2023/03/28 07:20:13;;;;;;;9.20;5.00;;;;;;;;;;5012098;28;20792;-46
2023/03/28 07:22:39;;;;;;;5.50;4.30;;;;;;;;;;5001306;28;20463;-46
2023/03/28 07:25:06;;;;;;;8.03;4.53;;;;;;;;;;5009807;28;20420;-46
2023/03/28 07:27:32;;;;;;;9.50;4.20;;;;;;;;;;5003224;28;20429;-45
2023/03/28 07:29:59;;;;;;;7.50;4.30;;;;;;;;;;5007478;28;20429;-46
2023/03/28 07:32:25;;;;;;;5.40;4.00;;;;;;;;;;5005675;28;20483;-46
2023/03/28 07:34:51;;;;;;;13.37;5.20;;;;;;;;;;5011710;28;20916;-46
2023/03/28 07:37:17;;;;;;;9.93;5.37;;;;;;;;;;5007071;28;20508;-47
2023/03/28 07:39:43;;;;;;;7.80;4.43;;;;;;;;;;5009374;28;20906;-46
2023/03/28 07:42:10;;;;;;;10.60;4.40;;;;;;;;;;5009733;28;20493;-47
2023/03/28 07:44:36;;;;;;;6.67;5.07;;;;;;;;;;5001267;28;20820;-47
2023/03/28 07:47:03;;;;;;;7.07;4.20;;;;;;;;;;5008220;28;20459;-46
2023/03/28 07:49:29;;;;;;;9.40;4.70;;;;;;;;;;5008432;28;20411;-47
2023/03/28 07:51:55;;;;;;;9.33;4.80;;;;;;;;;;5003195;28;21025;-46
2023/03/28 07:54:23;;;;;;;7.70;4.60;;;;;;;;;;5006407;28;20480;-47
2023/03/28 07:56:50;;;;;;;14.50;5.50;;;;;;;;;;4997918;28;20445;-45
2023/03/28 07:59:16;;;;;;;11.73;4.70;;;;;;;;;;5007378;28;20410;-46
2023/03/28 08:01:42;;;;;;;16.13;5.63;;;;;;;;;;5002364;28;20491;-46
2023/03/28 08:04:10;;;;;;;7.70;4.00;;;;;;;;;;5005646;28;20474;-46
2023/03/28 08:06:39;;;;;;;9.47;4.50;;;;;;;;;;5005525;28;20400;-46
2023/03/28 08:09:06;;;;;;;11.60;5.20;;;;;;;;;;5005550;28;20412;-47
2023/03/28 08:11:33;;;;;;;9.80;3.93;;;;;;;;;;5002150;28;20466;-45
2023/03/28 08:13:59;;;;;;;7.70;3.70;;;;;;;;;;5003239;28;20454;-48
2023/03/28 08:16:25;;;;;;;4.63;3.70;;;;;;;;;;5005542;28;20789;-47
2023/03/28 08:18:51;;;;;;;9.47;4.00;;;;;;;;;;5009982;28;20451;-48
2023/03/28 08:21:17;;;;;;;8.77;4.50;;;;;;;;;;5008286;28;20467;-47
2023/03/28 08:23:44;;;;;;;9.50;4.50;;;;;;;;;;5001551;28;20467;-47
2023/03/28 08:26:11;;;;;;;11.77;4.67;;;;;;;;;;4995074;28;20766;-47
2023/03/28 08:28:38;;;;;;;9.67;5.03;;;;;;;;;;4991435;28;20492;-45
2023/03/28 08:31:13;;;;;;;9.77;3.90;;;;;;;;;;4994338;28;20439;-47
2023/03/28 08:33:52;;;;;;;7.87;3.70;;;;;;;;;;4993043;28;20456;-46
2023/03/28 08:38:59;;;;;;;8.13;4.50;;;;;;;;;;5385231;23;20491;-45
2023/03/28 08:41:25;;;;;;;5.00;3.73;;;;;;;;;;4971350;28;20964;-46
2023/03/28 08:44:07;;;;;;;6.00;3.13;;;;;;;;;;4973231;28;20490;-46
2023/03/28 08:46:34;;;;;;;5.73;3.30;;;;;;;;;;4973459;28;20398;-46
2023/03/28 08:49:04;;;;;;;5.87;3.50;;;;;;;;;;4973142;28;20447;-46
2023/03/28 08:51:35;;;;;;;17.37;5.27;;;;;;;;;;4972446;28;20456;-45
2023/03/28 08:54:22;;;;;;;10.73;3.50;;;;;;;;;;4973281;28;20384;-45
2023/03/28 08:56:50;;;;;;;7.43;4.60;;;;;;;;;;4966504;28;20391;-46
2023/03/28 08:59:18;;;;;;;3.43;2.80;;;;;;;;;;4972784;28;20934;-46
2023/03/28 09:01:45;;;;;;;9.70;4.00;;;;;;;;;;4971346;28;20443;-45
2023/03/28 09:04:31;;;;;;;6.97;3.37;;;;;;;;;;4971620;28;21096;-45
2023/03/28 09:07:01;;;;;;;8.10;3.43;;;;;;;;;;4971925;28;20479;-45
2023/03/28 09:09:37;;;;;;;3.83;2.80;;;;;;;;;;4971798;28;20961;-46
2023/03/28 09:12:23;;;;;;;4.03;2.70;;;;;;;;;;4971788;28;20444;-45
2023/03/28 09:14:58;;;;;;;6.03;2.13;;;;;;;;;;4968611;28;20402;-47
2023/03/28 09:17:30;;;;;;;5.33;2.80;;;;;;;;;;4972510;28;20383;-45
2023/03/28 09:20:10;;;;;;;6.40;2.37;;;;;;;;;;4973120;28;20446;-45
2023/03/28 09:22:45;;;;;;;13.80;2.70;;;;;;;;;;4970972;28;20887;-46
2023/03/28 09:25:31;;;;;;;5.80;2.70;;;;;;;;;;4972764;28;20390;-46
2023/03/28 09:28:09;;;;;;;7.47;3.30;;;;;;;;;;4972323;28;20433;-45
2023/03/28 09:30:38;;;;;;;7.00;3.20;;;;;;;;;;4973069;28;20417;-46
2023/03/28 09:33:12;;;;;;;4.80;2.47;;;;;;;;;;4968247;28;20412;-45
2023/03/28 09:35:38;;;;;;;7.37;2.93;;;;;;;;;;4972736;28;20402;-45
2023/03/28 09:38:08;;;;;;;5.53;3.53;;;;;;;;;;4972098;28;20438;-44
2023/03/28 09:40:35;;;;;;;7.87;3.03;;;;;;;;;;4972330;28;20433;-44
2023/03/28 09:43:20;;;;;;;6.63;3.13;;;;;;;;;;4970266;28;20567;-44
2023/03/28 09:45:59;;;;;;;6.50;2.83;;;;;;;;;;4972477;28;20455;-43
2023/03/28 09:48:30;;;;;;;6.73;2.10;;;;;;;;;;4972395;28;20836;-44
2023/03/28 09:50:57;;;;;;;3.83;2.70;;;;;;;;;;4971135;28;20488;-43
2023/03/28 09:53:27;;;;;;;13.17;3.67;;;;;;;;;;4972728;28;20843;-43
2023/03/28 09:55:54;;;;;;;4.30;2.50;;;;;;;;;;4972247;28;20412;-44
2023/03/28 09:58:20;;;;;;;11.03;2.60;;;;;;;;;;4972297;28;20928;-43
2023/03/28 10:00:48;;;;;;;3.27;2.27;;;;;;;;;;4972427;28;20472;-44
2023/03/28 10:03:22;;;;;;;4.37;2.43;;;;;;;;;;4972468;28;20493;-44
2023/03/28 10:05:50;;;;;;;5.53;3.80;;;;;;;;;;4971326;28;20421;-44
2023/03/28 10:08:25;;;;;;;5.00;2.23;;;;;;;;;;4970721;28;20543;-43
2023/03/28 10:11:14;;;;;;;3.53;2.33;;;;;;;;;;4971638;28;20424;-43
2023/03/28 10:13:41;;;;;;;8.27;4.67;;;;;;;;;;4966964;28;20784;-43
2023/03/28 10:16:10;;;;;;;4.03;3.03;;;;;;;;;;4970843;28;20448;-44
2023/03/28 10:18:37;;;;;;;4.60;3.00;;;;;;;;;;4984762;28;20537;-44
2023/03/28 10:21:10;;;;;;;5.77;3.73;;;;;;;;;;4976028;28;20462;-43
2023/03/28 10:23:39;;;;;;;3.27;2.13;;;;;;;;;;4982633;28;20446;-44
2023/03/28 10:26:05;;;;;;;4.40;2.50;;;;;;;;;;4983849;28;20906;-43
2023/03/28 10:28:33;;;;;;;5.33;2.87;;;;;;;;;;4985047;28;20524;-44
2023/03/28 10:31:00;;;;;;;6.43;3.30;;;;;;;;;;4978237;28;20416;-43
2023/03/28 10:33:36;;;;;;;7.60;2.77;;;;;;;;;;4984826;28;20435;-43
2023/03/28 10:36:06;;;;;;;4.90;2.97;;;;;;;;;;4980232;28;20436;-43
2023/03/28 10:38:35;;;;;;;3.37;2.50;;;;;;;;;;4987282;28;20427;-44
2023/03/28 10:41:06;;;;;;;11.40;3.93;;;;;;;;;;4979990;28;20439;-45
2023/03/28 10:43:34;;;;;;;5.57;2.50;;;;;;;;;;4971137;28;20475;-45
2023/03/28 10:46:02;;;;;;;3.60;2.90;;;;;;;;;;4962806;28;20812;-45
2023/03/28 10:48:29;;;;;;;8.50;4.47;;;;;;;;;;4975484;28;20424;-45
2023/03/28 10:50:57;;;;;;;6.10;3.00;;;;;;;;;;4975234;28;20460;-46
2023/03/28 10:53:42;;;;;;;6.90;3.80;;;;;;;;;;4974237;28;20423;-46
2023/03/28 10:56:09;;;;;;;9.40;3.23;;;;;;;;;;4975345;28;20554;-45
2023/03/28 10:58:38;;;;;;;4.40;2.73;;;;;;;;;;4979115;28;20439;-46
2023/03/28 11:01:18;;;;;;;7.00;3.27;;;;;;;;;;4979042;28;20924;-44
2023/03/28 11:03:50;;;;;;;4.13;3.03;;;;;;;;;;4981940;28;20474;-44
2023/03/28 11:06:18;;;;;;;5.20;3.03;;;;;;;;;;4981880;28;20408;-44
2023/03/28 11:08:44;;;;;;;6.57;3.50;;;;;;;;;;4982867;28;20442;-43
2023/03/28 11:11:26;;;;;;;7.90;3.87;;;;;;;;;;4984320;28;20796;-44
2023/03/28 11:13:52;;;;;;;7.20;3.43;;;;;;;;;;4983874;28;20430;-45
2023/03/28 11:16:33;;;;;;;6.43;3.30;;;;;;;;;;4986083;28;20828;-46
2023/03/28 11:19:07;;;;;;;4.60;3.63;;;;;;;;;;4983899;28;20429;-43
2023/03/28 11:21:45;;;;;;;6.43;3.70;;;;;;;;;;4986277;28;20396;-46
2023/03/28 11:24:35;;;;;;;6.07;2.90;;;;;;;;;;4985903;28;20460;-46
2023/03/28 11:27:04;;;;;;;9.67;3.17;;;;;;;;;;4986534;28;20427;-45
2023/03/28 11:29:41;;;;;;;4.23;2.73;;;;;;;;;;4983998;28;20808;-43
2023/03/28 11:32:21;;;;;;;10.73;3.77;;;;;;;;;;4983973;28;20534;-45
2023/03/28 11:34:55;;;;;;;5.27;2.83;;;;;;;;;;4976163;28;20549;-45
2023/03/28 11:37:26;;;;;;;13.73;5.40;;;;;;;;;;4973855;28;20384;-44
2023/03/28 11:39:52;;;;;;;9.50;3.13;;;;;;;;;;4982666;28;20423;-43
2023/03/28 11:42:21;;;;;;;7.37;4.60;;;;;;;;;;4985546;28;20521;-43
2023/03/28 11:45:04;;;;;;;3.67;3.03;;;;;;;;;;4983997;28;20411;-45
2023/03/28 11:47:42;;;;;;;8.27;4.60;;;;;;;;;;4974969;28;20403;-44
2023/03/28 11:50:15;;;;;;;4.80;3.07;;;;;;;;;;4984375;28;20491;-44
2023/03/28 11:52:45;;;;;;;6.27;3.87;;;;;;;;;;4979389;28;20416;-44
2023/03/28 11:55:22;;;;;;;5.57;3.73;;;;;;;;;;4977050;28;20502;-46
2023/03/28 11:57:51;;;;;;;6.10;3.50;;;;;;;;;;4974138;28;20552;-47
2023/03/28 12:00:22;;;;;;;8.60;3.13;;;;;;;;;;4985907;28;20423;-43
2023/03/28 12:02:51;;;;;;;5.10;3.23;;;;;;;;;;4988366;28;20436;-44
2023/03/28 12:05:31;;;;;;;6.60;3.63;;;;;;;;;;4977459;28;20453;-47
2023/03/28 12:07:57;;;;;;;4.17;3.13;;;;;;;;;;4983281;28;20435;-45
2023/03/28 12:10:26;;;;;;;8.37;3.93;;;;;;;;;;4985346;28;20534;-47
2023/03/28 12:13:05;;;;;;;6.20;4.00;;;;;;;;;;4984262;28;20559;-45
2023/03/28 12:15:35;;;;;;;5.00;3.57;;;;;;;;;;4975307;28;20547;-46
2023/03/28 12:18:02;;;;;;;12.00;3.63;;;;;;;;;;4982252;28;20520;-44
2023/03/28 12:20:36;;;;;;;9.13;3.80;;;;;;;;;;4985563;28;20407;-44
2023/03/28 12:23:10;;;;;;;7.20;3.53;;;;;;;;;;4984568;28;20454;-44
2023/03/28 12:25:39;;;;;;;9.03;4.30;;;;;;;;;;4980817;28;20469;-44
2023/03/28 12:28:11;;;;;;;5.50;3.97;;;;;;;;;;4986635;28;20434;-43
2023/03/28 12:30:44;;;;;;;7.03;3.97;;;;;;;;;;4982886;28;20446;-45
2023/03/28 12:33:10;;;;;;;8.87;4.50;;;;;;;;;;4982975;28;20777;-44
2023/03/28 12:35:48;;;;;;;7.33;4.50;;;;;;;;;;4979613;28;20764;-43
2023/03/28 12:38:23;;;;;;;7.07;4.00;;;;;;;;;;4982083;28;20448;-44
2023/03/28 12:40:49;;;;;;;6.97;4.10;;;;;;;;;;4983615;28;20408;-45
2023/03/28 12:43:16;;;;;;;4.67;3.63;;;;;;;;;;4981210;28;20465;-45
2023/03/28 12:45:44;;;;;;;4.70;3.30;;;;;;;;;;4981300;28;20498;-45
2023/03/28 12:48:23;;;;;;;9.70;4.67;;;;;;;;;;4969561;28;20439;-44
2023/03/28 12:50:52;;;;;;;4.03;2.90;;;;;;;;;;4973853;28;20474;-46
2023/03/28 12:53:20;;;;;;;7.03;3.53;;;;;;;;;;4973215;28;20507;-46
2023/03/28 12:55:47;;;;;;;3.97;3.10;;;;;;;;;;4973186;28;20395;-44
2023/03/28 12:58:49;;;;;;;4.07;3.40;;;;;;;;;;4972633;28;20443;-45
2023/03/28 13:01:15;;;;;;;5.80;4.37;;;;;;;;;;4950185;29;20433;-45
2023/03/28 13:03:50;;;;;;;7.47;3.37;;;;;;;;;;4957025;28;20475;-43
2023/03/28 13:06:35;;;;;;;5.40;3.60;;;;;;;;;;4972747;28;20409;-44
2023/03/28 13:09:04;;;;;;;6.13;4.07;;;;;;;;;;4972885;28;20540;-43
2023/03/28 13:11:48;;;;;;;5.60;2.80;;;;;;;;;;4973102;28;20475;-43
2023/03/28 13:14:27;;;;;;;6.33;3.27;;;;;;;;;;4972561;28;20443;-44
2023/03/28 13:17:00;;;;;;;6.57;3.27;;;;;;;;;;4979129;28;20433;-44
2023/03/28 13:19:41;;;;;;;6.23;3.33;;;;;;;;;;4979655;28;20407;-43
2023/03/28 13:22:23;;;;;;;3.70;2.80;;;;;;;;;;4976447;28;20940;-43
2023/03/28 13:24:49;;;;;;;3.50;2.97;;;;;;;;;;4983903;28;20421;-44
2023/03/28 13:27:29;;;;;;;3.90;3.03;;;;;;;;;;4982296;28;20958;-43
2023/03/28 13:30:14;;;;;;;6.43;3.67;;;;;;;;;;4984296;28;20380;-43
2023/03/28 13:32:48;;;;;;;6.07;3.00;;;;;;;;;;4968858;28;20511;-44
2023/03/28 13:35:33;;;;;;;7.47;4.37;;;;;;;;;;4972007;28;20398;-46
2023/03/28 13:38:18;;;;;;;4.43;3.40;;;;;;;;;;4985861;28;20441;-47
2023/03/28 13:40:53;;;;;;;6.07;3.50;;;;;;;;;;4986010;28;20501;-48
2023/03/28 13:43:38;;;;;;;6.43;3.47;;;;;;;;;;4981709;28;20832;-46
2023/03/28 13:46:13;;;;;;;9.20;8.40;;;;;;;;;;4974631;28;20782;-45
2023/03/28 13:48:51;;;;;;;10.33;9.33;;;;;;;;;;4983670;28;20493;-45
2023/03/28 13:51:21;;;;;;;7.60;6.87;;;;;;;;;;4987895;28;20392;-45
2023/03/28 13:53:49;;;;;;;8.03;5.93;;;;;;;;;;4985434;28;20412;-47
2023/03/28 13:56:20;;;;;;;7.10;6.50;;;;;;;;;;4982374;28;20456;-46
2023/03/28 13:58:48;;;;;;;11.90;11.00;;;;;;;;;;4975919;28;20432;-47
2023/03/28 14:01:16;;;;;;;5.27;4.77;;;;;;;;;;4985338;28;20794;-45
2023/03/28 14:03:44;;;;;;;8.47;5.60;;;;;;;;;;4980840;28;20467;-44
2023/03/28 14:06:21;;;;;;;6.70;4.30;;;;;;;;;;4990926;28;20433;-44
2023/03/28 14:08:48;;;;;;;4.00;3.60;;;;;;;;;;4987142;28;20530;-43
2023/03/28 14:11:18;;;;;;;6.23;4.80;;;;;;;;;;4982874;28;20453;-45
2023/03/28 14:13:45;;;;;;;7.23;4.40;;;;;;;;;;4986126;28;20437;-46
2023/03/28 14:16:11;;;;;;;8.00;4.47;;;;;;;;;;4984206;28;20410;-44
2023/03/28 14:18:39;;;;;;;5.67;4.77;;;;;;;;;;4983627;28;20535;-44
2023/03/28 14:21:06;;;;;;;8.80;5.10;;;;;;;;;;4987283;28;20477;-45
2023/03/28 14:23:36;;;;;;;7.10;5.40;;;;;;;;;;4991413;28;20469;-47
2023/03/28 14:26:07;;;;;;;6.10;5.17;;;;;;;;;;4987596;28;20477;-47
2023/03/28 14:28:33;;;;;;;8.30;4.87;;;;;;;;;;4986566;28;20442;-47
2023/03/28 14:31:00;;;;;;;7.43;5.70;;;;;;;;;;4983072;28;20459;-48
2023/03/28 14:33:30;;;;;;;4.63;3.33;;;;;;;;;;4993551;28;20414;-47
2023/03/28 14:35:57;;;;;;;5.73;4.30;;;;;;;;;;4986645;28;20439;-45
2023/03/28 14:38:32;;;;;;;11.27;7.50;;;;;;;;;;4979571;28;20465;-44
2023/03/28 14:41:05;;;;;;;9.10;6.80;;;;;;;;;;4981907;28;20436;-44
2023/03/28 14:43:31;;;;;;;10.00;7.00;;;;;;;;;;4981012;28;20471;-44
2023/03/28 14:46:01;;;;;;;10.63;6.43;;;;;;;;;;4982822;28;20894;-43
2023/03/28 14:48:27;;;;;;;8.97;6.70;;;;;;;;;;4981333;28;20431;-44
2023/03/28 14:50:55;;;;;;;5.77;4.43;;;;;;;;;;4988533;28;20413;-44
2023/03/28 14:53:25;;;;;;;5.67;4.50;;;;;;;;;;4982355;28;20421;-43
2023/03/28 14:55:53;;;;;;;5.67;5.10;;;;;;;;;;4981444;28;20828;-44